Huvudsida
METAR-TAF:

METAR-TAF

Flygplatser :

Turin-Caselles flygplats

Turin, Italien

latitud: 45-13N, longitud: 007-39E, höjd: 301 m

Aktuellt väderrapport

Denna rapport gjordes för 37 minuter sedan, klockan 07:20 UTC
Vind 5 kt från nord/nordost, varierande mellan nord/nordväst och nordost
Temperatur 12°C
Fuktighet 50%
Tryck 1026 hPa
Sikt 10 km eller mer
Spridda moln på en höjd av 6000 ft

METAR: LIMF 050720Z 02005KT 340V040 9999 SCT060 12/02 Q1026

Tid: 09:57 (07:57 UTC)

Väderprognos

Denna rapport gjordes för 2 timmar och 57 minuter sedan, klockan 05:00 UTC
Prognos gäller från 05 kl. 06 UTC till 06 kl. 06 UTC
Vind 5 kt varierande vindriktning
Sikt 10 km eller mer
Inga moln under 1 500 m eller inga cumulonimbus

TAF: LIMF 050500Z 0506/0606 VRB05KT CAVOK

Aktuella väderrapporter och prognoser från 4000 flygplatser (METAR- och TAF-rapporter).

De tillgängliga stationerna syns som gula och röda prickar på kartan.

För musen över prickarna för att se namnen på stationerna.

Klicka sedan för att få väderrapporter och prognoser.

För att ändra kartan: Klicka på de gröna knapparna med ett svart kors på för att zooma in; den gröna knappen med ett streck på för att zooma ut; eller på de gröna pilarna för angränsande kartor.


METAR-TAF: